This is the latest recevied weather packets stored in our database for station/object WA1TYB-13. If no packets are shown the sender has not sent any weather packets the latest 10 day(s).
| Time | Temp. | Humidity | Pressure | Rain* | Wind** | Luminosity | Snow |
|---|---|---|---|---|---|---|---|
| 1777514541 | 11.11° C | 38% | 1023.9 hPa | 0 mm | - | 25 W/m² | - |
| 1777514239 | 11.67° C | 36% | 1023.7 hPa | 0 mm | - | 37 W/m² | - |
| 1777513934 | 11.67° C | 36% | 1023.9 hPa | 0 mm | - | 49 W/m² | - |
| 1777513632 | 11.67° C | 35% | 1023.6 hPa | 0 mm | - | 44 W/m² | - |
| 1777513329 | 12.22° C | 34% | 1023.7 hPa | 0 mm | - | 42 W/m² | - |
| 1777513024 | 12.22° C | 33% | 1024 hPa | 0 mm | - | 48 W/m² | - |
| 1777512721 | 12.78° C | 32% | 1023.7 hPa | 0 mm | - | 66 W/m² | - |
| 1777512418 | 12.78° C | 32% | 1023.9 hPa | 0 mm | - | 86 W/m² | - |
| 1777512114 | 12.78° C | 33% | 1023.7 hPa | 0 mm | - | 84 W/m² | - |
| 1777511813 | 12.78° C | 33% | 1023.6 hPa | 0 mm | - | 90 W/m² | - |
| 1777511509 | 12.22° C | 34% | 1023.5 hPa | 0 mm | - | 95 W/m² | - |
| 1777511206 | 12.22° C | 33% | 1023.3 hPa | 0 mm | - | 92 W/m² | - |
| 1777510902 | 12.22° C | 34% | 1023.4 hPa | 0 mm | - | 73 W/m² | - |
| 1777510599 | 12.78° C | 32% | 1023.2 hPa | 0 mm | - | 85 W/m² | - |
| 1777510295 | 13.33° C | 30% | 1023.1 hPa | 0 mm | - | 170 W/m² | - |
| 1777509992 | 12.78° C | 32% | 1023.1 hPa | 0 mm | - | 107 W/m² | - |
| 1777509687 | 12.78° C | 33% | 1023.3 hPa | 0 mm | - | 115 W/m² | - |
| 1777509384 | 13.33° C | 30% | 1023.3 hPa | 0 mm | - | 111 W/m² | - |
| 1777509082 | 13.33° C | 29% | 1023.2 hPa | 0 mm | - | 227 W/m² | - |
| 1777508778 | 12.78° C | 31% | 1023.2 hPa | 0 mm | - | 114 W/m² | - |
| 1777508476 | 12.78° C | 30% | 1023 hPa | 0 mm | - | 99 W/m² | - |
| 1777508173 | 12.78° C | 29% | 1023.3 hPa | 0 mm | - | 107 W/m² | - |
| 1777507869 | 12.78° C | 30% | 1023.3 hPa | 0 mm | - | 114 W/m² | - |
| 1777507567 | 12.78° C | 31% | 1023.3 hPa | 0 mm | - | 108 W/m² | - |
| 1777507263 | 12.78° C | 29% | 1023.2 hPa | 0 mm | - | 98 W/m² | - |
* Rain latest hour (hover to see other rain measurements)
** Current wind speed in m/s (hover to see current wind gust speed)